createdAt,value
2019-01-02T00:00:08.084Z,3.74
2019-01-02T00:01:18.683Z,3.73
2019-01-02T00:02:28.157Z,3.64
2019-01-02T00:03:38.119Z,3.56
2019-01-02T00:04:48.283Z,3.56
2019-01-02T00:05:59.091Z,3.67
2019-01-02T00:07:09.135Z,3.68
2019-01-02T00:08:19.180Z,3.66
2019-01-02T00:09:29.635Z,3.55
2019-01-02T00:10:40.027Z,3.61
2019-01-02T00:11:49.746Z,3.63
2019-01-02T00:13:00.313Z,3.53
2019-01-02T00:14:11.230Z,3.56
2019-01-02T00:15:21.411Z,3.53
2019-01-02T00:16:31.384Z,3.48
2019-01-02T00:17:41.985Z,3.46
2019-01-02T00:18:52.973Z,3.48
2019-01-02T00:20:02.957Z,3.48
2019-01-02T00:21:12.937Z,3.46
2019-01-02T00:22:23.626Z,3.59
2019-01-02T00:23:34.569Z,3.49
2019-01-02T00:24:44.538Z,3.53
2019-01-02T00:25:54.825Z,3.5
2019-01-02T00:27:05.444Z,3.45
2019-01-02T00:28:15.558Z,3.41
2019-01-02T00:29:25.552Z,3.4
2019-01-02T00:30:36.023Z,3.37
2019-01-02T00:31:46.331Z,3.49
2019-01-02T00:32:57.273Z,3.48
2019-01-02T00:34:07.302Z,3.45
2019-01-02T00:35:17.839Z,3.45
2019-01-02T00:36:28.824Z,3.45
2019-01-02T00:37:38.809Z,3.45
2019-01-02T00:38:49.316Z,3.41
2019-01-02T00:39:59.725Z,3.43
2019-01-02T00:41:10.739Z,3.48
2019-01-02T00:42:20.713Z,3.43
2019-01-02T00:43:31.045Z,3.49
2019-01-02T00:44:41.951Z,3.52
2019-01-02T00:45:51.934Z,3.52
2019-01-02T00:47:01.177Z,3.5
2019-01-02T00:48:11.795Z,3.49
2019-01-02T00:49:22.395Z,3.53
2019-01-02T00:50:32.136Z,3.48
2019-01-02T00:51:42.787Z,3.53
2019-01-02T00:52:53.707Z,3.55
2019-01-02T00:54:03.970Z,3.45
2019-01-02T00:55:14.282Z,3.48
2019-01-02T00:56:24.367Z,3.53
2019-01-02T00:57:35.086Z,3.52
2019-01-02T00:58:44.823Z,3.52
2019-01-02T00:59:55.260Z,3.49
2019-01-02T01:01:06.048Z,3.49
2019-01-02T01:02:16.019Z,3.49
2019-01-02T01:03:26.664Z,3.49
2019-01-02T01:04:37.464Z,3.49
2019-01-02T01:05:46.922Z,3.48
2019-01-02T01:06:57.246Z,3.4
2019-01-02T01:08:07.779Z,3.45
2019-01-02T01:09:18.248Z,3.48
2019-01-02T01:10:27.978Z,3.48
2019-01-02T01:11:38.531Z,3.49
2019-01-02T01:12:49.548Z,3.46
2019-01-02T01:13:59.650Z,3.48
2019-01-02T01:15:10.030Z,3.36
2019-01-02T01:16:20.704Z,3.41
2019-01-02T01:17:31.162Z,3.36
2019-01-02T01:18:40.870Z,3.31
2019-01-02T01:19:51.348Z,3.36
2019-01-02T01:21:02.083Z,3.41
2019-01-02T01:22:12.074Z,3.46
2019-01-02T01:23:22.187Z,3.41
2019-01-02T01:24:32.488Z,3.43
2019-01-02T01:25:42.756Z,3.58
2019-01-02T01:26:52.457Z,3.37
2019-01-02T01:28:02.412Z,3.46
2019-01-02T01:29:13.047Z,3.45
2019-01-02T01:30:24.186Z,3.41
2019-01-02T01:31:34.147Z,3.48
2019-01-02T01:32:44.129Z,3.48
2019-01-02T01:33:54.510Z,3.49
2019-01-02T01:35:04.503Z,3.49
2019-01-02T01:36:14.853Z,3.49
2019-01-02T01:37:24.824Z,3.48
2019-01-02T01:38:35.103Z,3.37
2019-01-02T01:39:45.426Z,3.48
2019-01-02T01:40:56.270Z,3.48
2019-01-02T01:42:06.250Z,3.46
2019-01-02T01:43:16.761Z,3.52
2019-01-02T01:44:27.342Z,3.45
2019-01-02T01:45:38.215Z,3.41
2019-01-02T01:46:47.942Z,3.49
2019-01-02T01:47:57.672Z,3.43
2019-01-02T01:49:08.250Z,3.49
2019-01-02T01:50:19.098Z,3.53
2019-01-02T01:51:28.557Z,3.52
2019-01-02T01:52:38.517Z,3.46
2019-01-02T01:53:48.949Z,3.46
2019-01-02T01:54:59.835Z,3.45
2019-01-02T01:56:09.809Z,3.5
2019-01-02T01:57:19.538Z,3.53
2019-01-02T01:58:30.162Z,3.49
2019-01-02T01:59:41.166Z,3.49
2019-01-02T02:00:51.558Z,3.55
2019-01-02T02:02:01.272Z,3.49
2019-01-02T02:03:11.872Z,3.5
2019-01-02T02:04:22.186Z,3.5
2019-01-02T02:05:32.730Z,3.46
2019-01-02T02:06:42.700Z,3.49
2019-01-02T02:07:53.374Z,3.46
2019-01-02T02:09:03.727Z,3.5
2019-01-02T02:10:14.230Z,3.49
2019-01-02T02:11:24.224Z,3.56
2019-01-02T02:12:33.925Z,3.5
2019-01-02T02:13:44.533Z,3.45
2019-01-02T02:14:55.262Z,3.41
2019-01-02T02:16:04.737Z,3.37
2019-01-02T02:17:14.712Z,3.41
2019-01-02T02:18:25.261Z,3.48
2019-01-02T02:19:36.177Z,3.46
2019-01-02T02:20:46.142Z,3.43
2019-01-02T02:21:56.101Z,3.41
2019-01-02T02:23:06.466Z,3.48
2019-01-02T02:24:17.012Z,3.48
2019-01-02T02:25:26.728Z,3.49
2019-01-02T02:26:36.448Z,3.48
2019-01-02T02:27:47.118Z,3.52
2019-01-02T02:28:57.828Z,3.49
2019-01-02T02:30:08.157Z,3.49
2019-01-02T02:31:18.550Z,3.55
2019-01-02T02:32:29.016Z,3.41
2019-01-02T02:33:39.790Z,3.52
2019-01-02T02:34:50.255Z,3.49
2019-01-02T02:36:00.195Z,3.43
2019-01-02T02:37:10.650Z,3.52
2019-01-02T02:38:21.309Z,3.52
2019-01-02T02:39:32.753Z,3.5
2019-01-02T02:40:43.746Z,3.55
2019-01-02T02:41:53.972Z,3.52
2019-01-02T02:43:05.204Z,3.53
2019-01-02T02:44:15.533Z,3.52
2019-01-02T02:45:27.240Z,3.52
2019-01-02T02:46:38.306Z,3.49
2019-01-02T02:47:48.937Z,3.5
2019-01-02T02:49:00.452Z,3.49
2019-01-02T02:50:11.334Z,3.5
2019-01-02T02:51:22.038Z,3.5
2019-01-02T02:52:32.537Z,3.52
2019-01-02T02:53:42.845Z,3.5
2019-01-02T02:54:53.523Z,3.52
2019-01-02T02:56:03.844Z,3.56
2019-01-02T02:57:14.563Z,3.58
2019-01-02T02:58:24.909Z,3.59
2019-01-02T02:59:35.738Z,3.59
2019-01-02T03:00:47.190Z,3.52
2019-01-02T03:01:58.557Z,3.56
2019-01-02T03:03:09.521Z,3.48
2019-01-02T03:04:19.567Z,3.55
2019-01-02T03:05:30.355Z,3.61
2019-01-02T03:06:40.663Z,3.67
2019-01-02T03:07:55.055Z,3.71
2019-01-02T03:09:05.912Z,3.68
2019-01-02T03:10:16.248Z,3.68
2019-01-02T03:11:27.394Z,3.68
2019-01-02T03:12:37.922Z,3.73
2019-01-02T03:13:48.807Z,3.63
2019-01-02T03:14:59.170Z,3.64
2019-01-02T03:16:09.812Z,3.55
2019-01-02T03:17:20.837Z,3.58
2019-01-02T03:18:31.871Z,3.68
2019-01-02T03:19:42.809Z,3.67
2019-01-02T03:20:53.673Z,3.68
2019-01-02T03:22:04.229Z,3.63
2019-01-02T03:23:15.407Z,3.59
2019-01-02T03:24:25.788Z,3.71
2019-01-02T03:25:37.373Z,3.67
2019-01-02T03:26:47.777Z,3.68
2019-01-02T03:27:58.406Z,3.73
2019-01-02T03:29:09.627Z,3.66
2019-01-02T03:30:21.010Z,3.71
2019-01-02T03:31:32.542Z,3.68
2019-01-02T03:32:44.168Z,3.84
2019-01-02T03:33:55.214Z,3.73
2019-01-02T03:35:05.142Z,3.86
2019-01-02T03:36:15.068Z,3.81
2019-01-02T03:37:24.993Z,3.81
2019-01-02T03:38:34.673Z,3.84
2019-01-02T03:39:44.357Z,3.84
2019-01-02T03:40:54.058Z,3.91
2019-01-02T03:42:04.010Z,3.82
2019-01-02T03:43:13.967Z,3.84
2019-01-02T03:44:23.666Z,3.85
2019-01-02T03:45:33.626Z,3.88
2019-01-02T03:46:43.319Z,3.88
2019-01-02T03:47:53.248Z,3.94
2019-01-02T03:49:02.683Z,3.99
2019-01-02T03:50:12.121Z,4.02
2019-01-02T03:51:22.065Z,3.96
2019-01-02T03:52:31.481Z,3.94
2019-01-02T03:53:40.901Z,3.95
2019-01-02T03:54:50.584Z,4.02
2019-01-02T03:56:00.031Z,3.91
2019-01-02T03:57:09.748Z,3.96
2019-01-02T03:58:19.199Z,3.92
2019-01-02T03:59:28.778Z,3.88
2019-01-02T04:00:38.463Z,3.84
2019-01-02T04:01:48.409Z,3.77
2019-01-02T04:02:57.861Z,3.84
2019-01-02T04:04:07.793Z,3.76
2019-01-02T04:05:17.466Z,3.63
2019-01-02T04:06:27.407Z,3.71
2019-01-02T04:07:37.097Z,3.66
2019-01-02T04:08:47.021Z,3.63
2019-01-02T04:09:56.695Z,3.55
2019-01-02T04:11:06.137Z,3.52
2019-01-02T04:12:16.084Z,3.48
2019-01-02T04:13:25.769Z,3.4
2019-01-02T04:14:35.734Z,3.31
2019-01-02T04:15:45.667Z,3.41
2019-01-02T04:16:55.359Z,3.36
2019-01-02T04:18:05.313Z,3.4
2019-01-02T04:19:15.257Z,3.34
2019-01-02T04:20:24.940Z,3.36
2019-01-02T04:21:34.895Z,3.29
2019-01-02T04:22:44.599Z,3.34
2019-01-02T04:23:54.037Z,3.27
2019-01-02T04:25:03.728Z,3.36
2019-01-02T04:26:13.662Z,3.29
2019-01-02T04:27:23.354Z,3.27
2019-01-02T04:28:33.040Z,3.29
2019-01-02T04:29:42.735Z,3.21
2019-01-02T04:30:52.673Z,3.19
2019-01-02T04:32:02.369Z,3.15
2019-01-02T04:33:12.049Z,3.11
2019-01-02T04:34:21.749Z,3.26
2019-01-02T04:35:31.677Z,3.11
2019-01-02T04:36:41.651Z,3.06
2019-01-02T04:37:51.593Z,3.16
2019-01-02T04:39:01.534Z,3.19
2019-01-02T04:40:12.889Z,3.22
2019-01-02T04:41:22.583Z,3.24
2019-01-02T04:42:32.013Z,3.22
2019-01-02T04:43:41.711Z,3.22
2019-01-02T04:44:51.397Z,3.29
2019-01-02T04:46:01.089Z,3.22
2019-01-02T04:47:11.016Z,3.29
2019-01-02T04:48:20.683Z,3.34
2019-01-02T04:49:30.118Z,3.3
2019-01-02T04:50:40.057Z,3.34
2019-01-02T04:51:49.998Z,3.34
2019-01-02T04:52:59.939Z,3.34
2019-01-02T04:54:09.635Z,3.31
2019-01-02T04:55:19.594Z,3.36
2019-01-02T04:56:29.534Z,3.34
2019-01-02T04:57:39.472Z,3.33
2019-01-02T04:58:49.412Z,3.45
2019-01-02T04:59:59.097Z,3.52
2019-01-02T05:01:09.469Z,3.5
2019-01-02T05:02:19.449Z,3.46
2019-01-02T05:03:29.379Z,3.46
2019-01-02T05:04:39.327Z,3.46
2019-01-02T05:05:49.254Z,3.5
2019-01-02T05:06:58.937Z,3.49
2019-01-02T05:08:08.623Z,3.49
2019-01-02T05:09:18.545Z,3.5
2019-01-02T05:10:28.235Z,3.5
2019-01-02T05:11:38.193Z,3.49
2019-01-02T05:12:47.890Z,3.52
2019-01-02T05:13:57.840Z,3.59
2019-01-02T05:15:07.774Z,3.56
2019-01-02T05:16:17.722Z,3.64
2019-01-02T05:17:27.648Z,3.58
2019-01-02T05:18:37.590Z,3.58
2019-01-02T05:19:47.531Z,3.59
2019-01-02T05:20:57.260Z,3.7
2019-01-02T05:22:06.955Z,3.59
2019-01-02T05:23:16.641Z,3.61
2019-01-02T05:24:26.576Z,3.59
2019-01-02T05:25:36.273Z,3.56
2019-01-02T05:26:45.992Z,3.61
2019-01-02T05:27:55.956Z,3.63
2019-01-02T05:29:05.906Z,3.56
2019-01-02T05:30:16.000Z,3.71
2019-01-02T05:31:25.441Z,3.61
2019-01-02T05:32:35.389Z,3.73
2019-01-02T05:33:45.343Z,3.64
2019-01-02T05:34:55.044Z,3.64
2019-01-02T05:36:04.969Z,3.66
2019-01-02T05:37:14.657Z,3.71
2019-01-02T05:38:24.611Z,3.71
2019-01-02T05:39:34.050Z,3.73
2019-01-02T05:40:43.741Z,3.7
2019-01-02T05:41:53.675Z,3.68
2019-01-02T05:43:03.609Z,3.7
2019-01-02T05:44:13.559Z,3.71
2019-01-02T05:45:23.491Z,3.68
2019-01-02T05:46:33.424Z,3.64
2019-01-02T05:47:43.113Z,3.68
2019-01-02T05:48:52.793Z,3.7
2019-01-02T05:50:02.738Z,3.68
2019-01-02T05:51:12.691Z,3.67
2019-01-02T05:52:22.383Z,3.7
2019-01-02T05:53:32.311Z,3.7
2019-01-02T05:54:42.275Z,3.66
2019-01-02T05:55:52.283Z,3.71
2019-01-02T05:57:02.224Z,3.76
2019-01-02T05:58:12.198Z,3.67
2019-01-02T05:59:21.635Z,3.71
2019-01-02T06:00:31.588Z,3.71
2019-01-02T06:01:46.841Z,3.68
2019-01-02T06:02:56.525Z,3.73
2019-01-02T06:04:06.215Z,3.68
2019-01-02T06:05:15.899Z,3.7
2019-01-02T06:06:25.861Z,3.71
2019-01-02T06:07:35.805Z,3.71
2019-01-02T06:08:45.740Z,3.71
2019-01-02T06:09:55.671Z,3.68
2019-01-02T06:11:05.609Z,3.68
2019-01-02T06:12:15.287Z,3.71
2019-01-02T06:13:24.977Z,3.71
2019-01-02T06:14:34.677Z,3.71
2019-01-02T06:15:44.606Z,3.78
2019-01-02T06:16:54.291Z,3.86
2019-01-02T06:18:03.974Z,3.81
2019-01-02T06:19:13.917Z,3.82
2019-01-02T06:20:23.857Z,3.82
2019-01-02T06:21:33.303Z,3.81
2019-01-02T06:22:43.250Z,3.89
2019-01-02T06:23:52.945Z,3.92
2019-01-02T06:25:02.939Z,3.89
2019-01-02T06:26:12.653Z,3.88
2019-01-02T06:27:22.597Z,3.99
2019-01-02T06:28:32.524Z,3.95
2019-01-02T06:29:42.462Z,3.94
2019-01-02T06:30:52.443Z,3.85
2019-01-02T06:32:02.132Z,3.99
2019-01-02T06:33:11.827Z,3.96
2019-01-02T06:34:21.530Z,3.91
2019-01-02T06:35:31.214Z,3.68
2019-01-02T06:36:40.894Z,3.71
2019-01-02T06:37:50.842Z,3.76
2019-01-02T06:39:00.782Z,3.82
2019-01-02T06:40:10.736Z,3.85
2019-01-02T06:41:20.180Z,3.88
2019-01-02T06:42:30.115Z,3.85
2019-01-02T06:43:40.049Z,3.89
2019-01-02T06:44:49.735Z,3.89
2019-01-02T06:45:59.423Z,3.94
2019-01-02T06:47:09.356Z,3.92
2019-01-02T06:48:19.294Z,4
2019-01-02T06:49:29.260Z,3.95
2019-01-02T06:50:39.185Z,3.85
2019-01-02T06:51:48.616Z,3.84
2019-01-02T06:52:58.295Z,3.86
2019-01-02T06:54:08.220Z,3.91
2019-01-02T06:55:18.172Z,3.81
2019-01-02T06:56:27.618Z,3.86
2019-01-02T06:57:37.565Z,3.85
2019-01-02T06:58:47.268Z,3.94
2019-01-02T06:59:57.873Z,3.86
2019-01-02T07:01:07.796Z,3.81
2019-01-02T07:02:17.481Z,3.81
2019-01-02T07:03:27.450Z,3.82
2019-01-02T07:04:37.128Z,3.88
2019-01-02T07:05:46.827Z,3.82
2019-01-02T07:06:56.512Z,3.91
2019-01-02T07:08:06.532Z,3.91
2019-01-02T07:09:16.230Z,3.88
2019-01-02T07:10:26.180Z,3.84
2019-01-02T07:11:36.127Z,3.91
2019-01-02T07:12:46.084Z,3.89
2019-01-02T07:13:55.789Z,3.92
2019-01-02T07:15:05.737Z,3.89
2019-01-02T07:16:15.658Z,3.92
2019-01-02T07:17:24.880Z,3.89
2019-01-02T07:18:34.824Z,3.99
2019-01-02T07:19:44.526Z,4
2019-01-02T07:20:54.221Z,4.03
2019-01-02T07:22:03.923Z,3.94
2019-01-02T07:23:13.631Z,3.96
2019-01-02T07:24:23.581Z,4.09
2019-01-02T07:25:33.280Z,4.02
2019-01-02T07:26:43.010Z,4.03
2019-01-02T07:27:53.567Z,4.09
2019-01-02T07:29:03.506Z,4.06
2019-01-02T07:30:13.196Z,4
2019-01-02T07:31:23.128Z,4.04
2019-01-02T07:32:33.073Z,4.18
2019-01-02T07:33:42.517Z,4.21
2019-01-02T07:34:52.447Z,4.2
2019-01-02T07:36:02.394Z,4.16
2019-01-02T07:37:12.352Z,4.13
2019-01-02T07:38:22.294Z,4.1
2019-01-02T07:39:32.238Z,4.16
2019-01-02T07:40:41.674Z,4.16
2019-01-02T07:41:51.361Z,4.13
2019-01-02T07:43:01.308Z,4.2
2019-01-02T07:44:11.260Z,4.06
2019-01-02T07:45:20.964Z,4.18
2019-01-02T07:46:30.908Z,4.06
2019-01-02T07:47:40.359Z,4.03
2019-01-02T07:48:50.045Z,4.02
2019-01-02T07:49:59.998Z,4.18
2019-01-02T07:51:09.688Z,4.06
2019-01-02T07:52:19.418Z,4.12
2019-01-02T07:53:29.350Z,4.1
2019-01-02T07:54:39.297Z,4.14
2019-01-02T07:55:49.237Z,4.02
2019-01-02T07:56:58.979Z,3.99
2019-01-02T07:58:08.663Z,4.07
2019-01-02T07:59:18.609Z,4.07
2019-01-02T08:00:28.293Z,4
2019-01-02T08:01:38.263Z,4.03
2019-01-02T08:02:48.203Z,3.96
2019-01-02T08:03:57.904Z,4
2019-01-02T08:05:07.846Z,4.1
2019-01-02T08:06:17.792Z,4.13
2019-01-02T08:07:27.712Z,4.09
2019-01-02T08:08:37.404Z,4.12
2019-01-02T08:09:47.337Z,3.99
2019-01-02T08:10:56.783Z,4.03
2019-01-02T08:12:06.225Z,4.14
2019-01-02T08:13:15.930Z,4.1
2019-01-02T08:14:25.883Z,4.03
2019-01-02T08:15:35.812Z,4.03
2019-01-02T08:16:45.498Z,4
2019-01-02T08:17:55.475Z,4.02
2019-01-02T08:19:05.426Z,3.99
2019-01-02T08:20:15.136Z,3.92
2019-01-02T08:21:24.563Z,3.95
2019-01-02T08:22:34.502Z,3.94
2019-01-02T08:23:43.933Z,3.88
2019-01-02T08:24:53.622Z,3.86
2019-01-02T08:26:03.073Z,3.92
2019-01-02T08:27:13.008Z,3.81
2019-01-02T08:28:22.699Z,3.77
2019-01-02T08:29:32.635Z,3.92
2019-01-02T08:30:42.581Z,3.84
2019-01-02T08:31:52.020Z,3.84
2019-01-02T08:33:01.711Z,3.78
2019-01-02T08:34:11.405Z,3.82
2019-01-02T08:35:21.366Z,3.68
2019-01-02T08:36:31.312Z,3.66
2019-01-02T08:37:41.243Z,3.68
2019-01-02T08:38:50.929Z,3.67
2019-01-02T08:40:00.869Z,3.67
2019-01-02T08:41:10.297Z,3.66
2019-01-02T08:42:20.283Z,3.61
2019-01-02T08:43:29.980Z,3.59
2019-01-02T08:44:39.914Z,3.56
2019-01-02T08:45:49.866Z,3.56
2019-01-02T08:46:59.574Z,3.61
2019-01-02T08:48:09.521Z,3.66
2019-01-02T08:49:19.451Z,3.53
2019-01-02T08:50:29.394Z,3.48
2019-01-02T08:51:39.347Z,3.5
2019-01-02T08:52:49.067Z,3.5
2019-01-02T08:53:59.011Z,3.46
2019-01-02T08:55:08.713Z,3.37
2019-01-02T08:56:18.641Z,3.26
2019-01-02T08:57:28.579Z,3.08
2019-01-02T08:58:38.530Z,3
2019-01-02T08:59:48.470Z,3.05
2019-01-02T09:00:58.163Z,3
2019-01-02T09:02:08.103Z,2.9
2019-01-02T09:03:18.053Z,2.82
2019-01-02T09:04:27.755Z,2.77
2019-01-02T09:05:37.694Z,2.44
2019-01-02T09:06:47.408Z,2.28
2019-01-02T09:07:57.355Z,2.03
2019-01-02T09:09:07.064Z,1.78
2019-01-02T09:10:17.459Z,1.63
2019-01-02T09:11:27.142Z,1.5
2019-01-02T09:12:37.087Z,1.45
2019-01-02T09:13:47.041Z,1.45
2019-01-02T09:14:56.767Z,1.4
2019-01-02T09:16:06.721Z,1.36
2019-01-02T09:17:16.409Z,1.39
2019-01-02T09:18:26.358Z,1.38
2019-01-02T09:19:36.050Z,1.3
2019-01-02T09:20:46.005Z,1.32
2019-01-02T09:21:55.957Z,1.34
2019-01-02T09:23:05.664Z,1.3
2019-01-02T09:24:15.362Z,1.3
2019-01-02T09:25:25.053Z,1.31
2019-01-02T09:26:34.999Z,1.3
2019-01-02T09:27:44.940Z,1.32
2019-01-02T09:28:54.868Z,1.36
2019-01-02T09:30:04.569Z,1.4
2019-01-02T09:31:14.517Z,1.4
2019-01-02T09:32:24.452Z,1.48
2019-01-02T09:33:34.378Z,1.45
2019-01-02T09:34:44.332Z,1.48
2019-01-02T09:35:55.737Z,1.49
2019-01-02T09:37:05.694Z,1.52
2019-01-02T09:38:15.637Z,1.66
2019-01-02T09:39:25.345Z,1.63
2019-01-02T09:40:35.416Z,1.74
2019-01-02T09:41:45.541Z,1.76
2019-01-02T09:42:55.339Z,1.7
2019-01-02T09:44:05.039Z,1.66
2019-01-02T09:45:14.997Z,1.67
2019-01-02T09:46:25.160Z,1.61
2019-01-02T09:47:35.474Z,1.67
2019-01-02T09:48:45.414Z,1.68
2019-01-02T09:49:55.375Z,1.71
2019-01-02T09:51:05.439Z,1.74
2019-01-02T09:52:15.133Z,1.81
2019-01-02T09:53:24.818Z,1.84
2019-01-02T09:54:34.761Z,1.74
2019-01-02T09:55:44.451Z,1.79
2019-01-02T09:56:54.393Z,1.79
2019-01-02T09:58:04.088Z,1.85
2019-01-02T09:59:14.033Z,1.88
2019-01-02T10:00:23.973Z,1.84
2019-01-02T10:01:33.936Z,1.88
2019-01-02T10:02:43.621Z,1.89
2019-01-02T10:03:53.575Z,1.93
2019-01-02T10:05:03.531Z,1.89
2019-01-02T10:06:13.465Z,2.03
2019-01-02T10:07:23.169Z,1.93
2019-01-02T10:08:32.867Z,1.89
2019-01-02T10:09:42.813Z,2.01
2019-01-02T10:10:52.246Z,2.05
2019-01-02T10:12:02.175Z,2.03
2019-01-02T10:13:12.124Z,2.05
2019-01-02T10:14:21.571Z,2.08
2019-01-02T10:15:31.531Z,2.15
2019-01-02T10:16:41.481Z,2.16
2019-01-02T10:17:51.421Z,2.1
2019-01-02T10:19:01.104Z,2.23
2019-01-02T10:20:11.054Z,2.25
2019-01-02T10:21:20.989Z,2.25
2019-01-02T10:22:30.702Z,2.25
2019-01-02T10:23:40.403Z,2.37
2019-01-02T10:24:50.335Z,2.33
2019-01-02T10:26:00.275Z,2.32
2019-01-02T10:27:09.976Z,2.4
2019-01-02T10:28:19.924Z,2.4
2019-01-02T10:29:29.613Z,2.47
2019-01-02T10:30:39.312Z,2.5
2019-01-02T10:31:49.254Z,2.59
2019-01-02T10:32:59.435Z,2.5
2019-01-02T10:34:09.170Z,2.52
2019-01-02T10:35:18.885Z,2.54
2019-01-02T10:36:28.568Z,2.57
2019-01-02T10:37:38.285Z,2.61
2019-01-02T10:38:47.975Z,2.73
2019-01-02T10:39:57.416Z,2.68
2019-01-02T10:41:07.355Z,2.64
2019-01-02T10:42:17.306Z,2.8
2019-01-02T10:43:27.248Z,2.83
2019-01-02T10:44:36.947Z,2.98
2019-01-02T10:45:46.909Z,2.95
2019-01-02T10:46:56.590Z,2.97
2019-01-02T10:48:06.537Z,3.05
2019-01-02T10:49:16.488Z,3.01
2019-01-02T10:50:26.444Z,3.13
2019-01-02T10:51:36.385Z,3.19
2019-01-02T10:52:46.841Z,3.24
2019-01-02T10:53:56.868Z,3.19
2019-01-02T10:55:06.827Z,3.3
2019-01-02T10:56:16.783Z,3.37
2019-01-02T10:57:26.471Z,3.37
2019-01-02T10:58:41.364Z,3.48
2019-01-02T10:59:51.303Z,3.41
2019-01-02T11:01:01.257Z,3.41
2019-01-02T11:02:11.227Z,3.49
2019-01-02T11:03:21.175Z,3.52
2019-01-02T11:04:30.863Z,3.46
2019-01-02T11:05:40.557Z,3.33
2019-01-02T11:06:50.507Z,3.31
2019-01-02T11:08:00.467Z,3.49
2019-01-02T11:09:10.419Z,3.5
2019-01-02T11:10:19.850Z,3.61
2019-01-02T11:11:29.544Z,3.71
2019-01-02T11:12:39.673Z,3.67
2019-01-02T11:13:49.635Z,3.68
2019-01-02T11:14:59.318Z,3.7
2019-01-02T11:16:09.015Z,3.92
2019-01-02T11:17:19.793Z,3.91
2019-01-02T11:18:29.243Z,3.86
2019-01-02T11:19:39.186Z,3.88
2019-01-02T11:20:49.143Z,3.96
2019-01-02T11:21:59.078Z,3.95
2019-01-02T11:23:09.027Z,3.92
2019-01-02T11:24:18.725Z,4.03
2019-01-02T11:25:28.657Z,4.25
2019-01-02T11:26:38.603Z,4.5
2019-01-02T11:27:48.546Z,4.64
2019-01-02T11:28:58.246Z,5.05
2019-01-02T11:30:08.206Z,5.46
2019-01-02T11:31:18.155Z,5.7
2019-01-02T11:32:27.845Z,5.73
2019-01-02T11:33:37.802Z,5.95
2019-01-02T11:34:47.771Z,5.87
2019-01-02T11:35:57.730Z,5.74
2019-01-02T11:37:07.160Z,5.38
2019-01-02T11:38:17.103Z,5.2
2019-01-02T11:39:27.056Z,5.02
2019-01-02T11:40:36.990Z,4.84
2019-01-02T11:41:46.985Z,4.86
2019-01-02T11:42:56.686Z,4.67
2019-01-02T11:44:06.378Z,4.6
2019-01-02T11:45:16.086Z,4.56
2019-01-02T11:46:26.045Z,4.43
2019-01-02T11:47:36.025Z,4.38
2019-01-02T11:48:45.978Z,4.22
2019-01-02T11:49:55.922Z,4.07
2019-01-02T11:51:06.632Z,3.96
2019-01-02T11:52:16.602Z,3.96
2019-01-02T11:53:26.551Z,4.02
2019-01-02T11:54:35.995Z,4.04
2019-01-02T11:55:45.938Z,4.13
2019-01-02T11:56:55.618Z,4.04
2019-01-02T11:58:05.576Z,4.02
2019-01-02T11:59:15.270Z,4.24
2019-01-02T12:00:25.228Z,4.25
2019-01-02T12:01:34.920Z,4.27
2019-01-02T12:02:44.623Z,4.32
2019-01-02T12:03:54.564Z,4.42
2019-01-02T12:05:04.508Z,4.53
2019-01-02T12:06:14.450Z,4.76
2019-01-02T12:07:24.393Z,4.75
2019-01-02T12:08:34.343Z,4.83
2019-01-02T12:09:44.036Z,4.87
2019-01-02T12:10:53.976Z,4.68
2019-01-02T12:12:03.942Z,4.6
2019-01-02T12:13:13.895Z,4.48
2019-01-02T12:14:23.859Z,4.27
2019-01-02T12:15:33.803Z,4.34
2019-01-02T12:16:43.738Z,4.3
2019-01-02T12:17:53.687Z,4.36
2019-01-02T12:19:03.396Z,4.38
2019-01-02T12:20:13.343Z,4.49
2019-01-02T12:21:23.032Z,4.58
2019-01-02T12:22:32.498Z,4.7
2019-01-02T12:23:42.486Z,5.01
2019-01-02T12:24:52.445Z,5.04
2019-01-02T12:26:02.419Z,5.13
2019-01-02T12:27:12.388Z,5.31
2019-01-02T12:28:22.087Z,5.23
2019-01-02T12:29:32.031Z,5.31
2019-01-02T12:30:41.744Z,5.49
2019-01-02T12:31:51.698Z,5.61
2019-01-02T12:33:01.422Z,5.72
2019-01-02T12:34:12.079Z,5.95
2019-01-02T12:35:21.527Z,6.12
2019-01-02T12:36:31.228Z,6.28
2019-01-02T12:37:40.924Z,6.26
2019-01-02T12:38:50.876Z,6.15
2019-01-02T12:40:00.819Z,6.15
2019-01-02T12:41:10.780Z,6.43
2019-01-02T12:42:20.238Z,6.54
2019-01-02T12:43:30.181Z,6.57
2019-01-02T12:44:39.866Z,6.54
2019-01-02T12:45:49.880Z,6.52
2019-01-02T12:46:59.832Z,6.41
2019-01-02T12:48:09.772Z,6.26
2019-01-02T12:49:19.469Z,6.17
2019-01-02T12:50:29.180Z,6.15
2019-01-02T12:51:38.882Z,6.15
2019-01-02T12:52:48.582Z,5.87
2019-01-02T12:53:58.042Z,6.13
2019-01-02T12:55:08.504Z,5.95
2019-01-02T12:56:18.204Z,5.74
2019-01-02T12:57:28.155Z,5.73
2019-01-02T12:58:37.840Z,5.83
2019-01-02T12:59:47.867Z,5.88
2019-01-02T13:00:57.840Z,5.98
2019-01-02T13:02:07.794Z,5.87
2019-01-02T13:03:17.767Z,5.84
2019-01-02T13:04:27.720Z,5.81
2019-01-02T13:05:38.391Z,5.52
2019-01-02T13:06:48.106Z,5.37
2019-01-02T13:07:58.062Z,5.26
2019-01-02T13:09:08.020Z,5.25
2019-01-02T13:10:17.484Z,5.18
2019-01-02T13:11:27.428Z,5.31
2019-01-02T13:12:37.365Z,5.29
2019-01-02T13:13:47.302Z,5.4
2019-01-02T13:14:57.268Z,5.49
2019-01-02T13:16:07.222Z,5.59
2019-01-02T13:17:16.926Z,5.64
2019-01-02T13:18:26.364Z,5.56
2019-01-02T13:19:36.335Z,5.41
2019-01-02T13:20:46.028Z,5.1
2019-01-02T13:21:55.986Z,4.97
2019-01-02T13:23:05.437Z,4.95
2019-01-02T13:24:14.884Z,4.83
2019-01-02T13:25:24.841Z,4.56
2019-01-02T13:26:34.797Z,4.53
2019-01-02T13:27:44.744Z,4.61
2019-01-02T13:28:54.190Z,4.5
2019-01-02T13:30:04.148Z,4.42
2019-01-02T13:31:14.089Z,4.4
2019-01-02T13:32:23.774Z,4.21
2019-01-02T13:33:33.482Z,4
2019-01-02T13:34:43.430Z,3.96
2019-01-02T13:35:53.392Z,3.89
2019-01-02T13:37:02.847Z,3.89
2019-01-02T13:38:12.547Z,3.82
2019-01-02T13:39:22.535Z,3.77
2019-01-02T13:40:32.220Z,3.84
2019-01-02T13:41:41.934Z,3.84
2019-01-02T13:42:51.880Z,3.77
2019-01-02T13:44:01.842Z,3.85
2019-01-02T13:45:11.293Z,3.86
2019-01-02T13:46:20.988Z,3.85
2019-01-02T13:47:30.920Z,3.92
2019-01-02T13:48:40.863Z,3.89
2019-01-02T13:49:50.852Z,3.96
2019-01-02T13:51:00.798Z,3.99
2019-01-02T13:52:11.631Z,4
2019-01-02T13:53:21.583Z,4.1
2019-01-02T13:54:31.532Z,4.1
2019-01-02T13:55:41.477Z,4.06
2019-01-02T13:56:51.420Z,4.13
2019-01-02T13:58:01.373Z,4.02
2019-01-02T13:59:10.566Z,3.92
2019-01-02T14:00:20.531Z,3.91
2019-01-02T14:01:30.502Z,3.89
2019-01-02T14:02:40.462Z,3.85
2019-01-02T14:03:50.402Z,3.85
2019-01-02T14:05:00.356Z,3.89
2019-01-02T14:06:09.850Z,3.78
2019-01-02T14:07:19.811Z,3.82
2019-01-02T14:08:29.763Z,3.74
2019-01-02T14:09:39.462Z,3.7
2019-01-02T14:10:49.170Z,3.67
2019-01-02T14:11:58.855Z,3.68
2019-01-02T14:13:08.304Z,3.68
2019-01-02T14:14:18.243Z,3.71
2019-01-02T14:15:28.187Z,3.68
2019-01-02T14:16:37.652Z,3.61
2019-01-02T14:17:47.607Z,3.67
2019-01-02T14:18:57.549Z,3.63
2019-01-02T14:20:07.503Z,3.52
2019-01-02T14:21:17.458Z,3.48
2019-01-02T14:22:27.387Z,3.52
2019-01-02T14:23:36.837Z,3.48
2019-01-02T14:24:46.786Z,3.31
2019-01-02T14:25:56.734Z,3.27
2019-01-02T14:27:06.673Z,3.29
2019-01-02T14:28:16.619Z,3.26
2019-01-02T14:29:26.568Z,3.24
2019-01-02T14:30:36.281Z,3.19
2019-01-02T14:31:45.971Z,3.21
2019-01-02T14:32:55.674Z,3.18
2019-01-02T14:34:05.371Z,3.16
2019-01-02T14:35:15.310Z,3.19
2019-01-02T14:36:30.110Z,3.16
2019-01-02T14:37:40.061Z,3.21
2019-01-02T14:38:49.757Z,3.15
2019-01-02T14:39:59.704Z,3.19
2019-01-02T14:41:09.407Z,3.21
2019-01-02T14:42:19.342Z,3.12
2019-01-02T14:43:29.306Z,3.01
2019-01-02T14:44:39.280Z,2.8
2019-01-02T14:45:49.228Z,2.77
2019-01-02T14:46:59.173Z,2.73
2019-01-02T14:48:09.120Z,2.57
2019-01-02T14:49:18.884Z,2.55
2019-01-02T14:50:28.855Z,2.46
2019-01-02T14:51:38.562Z,2.58
2019-01-02T14:52:49.561Z,2.5
2019-01-02T14:53:59.557Z,2.59
2019-01-02T14:55:09.537Z,2.57
2019-01-02T14:56:19.237Z,2.57
2019-01-02T14:57:29.215Z,2.62
2019-01-02T14:58:39.166Z,2.58
2019-01-02T14:59:49.116Z,2.59
2019-01-02T15:00:58.818Z,2.59
2019-01-02T15:02:08.528Z,2.57
2019-01-02T15:03:18.215Z,2.57
2019-01-02T15:04:28.175Z,2.52
2019-01-02T15:05:38.119Z,2.5
2019-01-02T15:06:49.175Z,2.46
2019-01-02T15:07:59.125Z,2.44
2019-01-02T15:09:09.076Z,2.5
2019-01-02T15:10:19.018Z,2.41
2019-01-02T15:11:28.996Z,2.39
2019-01-02T15:12:38.954Z,2.43
2019-01-02T15:13:48.914Z,2.39
2019-01-02T15:14:58.863Z,2.36
2019-01-02T15:16:08.819Z,2.39
2019-01-02T15:17:19.035Z,2.36
2019-01-02T15:18:28.739Z,2.4
2019-01-02T15:19:38.450Z,2.36
2019-01-02T15:20:48.405Z,2.37
2019-01-02T15:21:58.109Z,2.28
2019-01-02T15:23:12.264Z,2.33
2019-01-02T15:24:21.951Z,2.28
2019-01-02T15:25:31.905Z,2.33
2019-01-02T15:26:41.840Z,2.3
2019-01-02T15:27:51.528Z,2.26
2019-01-02T15:29:01.219Z,2.34
2019-01-02T15:30:11.194Z,2.25
2019-01-02T15:31:21.154Z,2.32
2019-01-02T15:32:30.859Z,2.32
2019-01-02T15:33:40.811Z,2.32
2019-01-02T15:34:50.539Z,2.26
2019-01-02T15:36:00.256Z,2.3